sensor_id;sensor_type;location;lat;lon;timestamp;P1;durP1;ratioP1;P2;durP2;ratioP2
22922;SDS011;11627;51.322;22.816;2022-12-07T00:01:30;28.17;;;12.55;;
22922;SDS011;11627;51.322;22.816;2022-12-07T00:03:58;27.35;;;12.85;;
22922;SDS011;11627;51.322;22.816;2022-12-07T00:06:29;28.02;;;13.27;;
22922;SDS011;11627;51.322;22.816;2022-12-07T00:08:56;33.45;;;14.05;;
22922;SDS011;11627;51.322;22.816;2022-12-07T00:11:22;30.63;;;14.45;;
22922;SDS011;11627;51.322;22.816;2022-12-07T00:13:56;31.10;;;13.70;;
22922;SDS011;11627;51.322;22.816;2022-12-07T00:16:24;30.77;;;14.05;;
22922;SDS011;11627;51.322;22.816;2022-12-07T00:18:52;31.15;;;13.00;;
22922;SDS011;11627;51.322;22.816;2022-12-07T00:21:18;34.88;;;14.90;;
22922;SDS011;11627;51.322;22.816;2022-12-07T00:23:49;34.80;;;15.95;;
22922;SDS011;11627;51.322;22.816;2022-12-07T00:26:17;35.75;;;15.57;;
22922;SDS011;11627;51.322;22.816;2022-12-07T00:28:46;34.22;;;15.13;;
22922;SDS011;11627;51.322;22.816;2022-12-07T00:31:13;35.22;;;14.95;;
22922;SDS011;11627;51.322;22.816;2022-12-07T00:33:39;32.97;;;15.13;;
22922;SDS011;11627;51.322;22.816;2022-12-07T00:36:09;33.65;;;14.60;;
22922;SDS011;11627;51.322;22.816;2022-12-07T00:38:37;33.58;;;14.75;;
22922;SDS011;11627;51.322;22.816;2022-12-07T00:41:05;33.22;;;14.05;;
22922;SDS011;11627;51.322;22.816;2022-12-07T00:43:33;32.30;;;14.25;;
22922;SDS011;11627;51.322;22.816;2022-12-07T00:45:58;27.80;;;13.13;;
22922;SDS011;11627;51.322;22.816;2022-12-07T00:48:24;25.45;;;12.90;;
22922;SDS011;11627;51.322;22.816;2022-12-07T00:50:50;29.90;;;13.50;;
22922;SDS011;11627;51.322;22.816;2022-12-07T00:53:16;32.20;;;14.40;;
22922;SDS011;11627;51.322;22.816;2022-12-07T00:55:42;29.60;;;13.77;;
22922;SDS011;11627;51.322;22.816;2022-12-07T00:58:08;30.13;;;14.18;;
22922;SDS011;11627;51.322;22.816;2022-12-07T01:00:38;32.72;;;14.60;;
22922;SDS011;11627;51.322;22.816;2022-12-07T01:03:05;29.35;;;13.75;;
22922;SDS011;11627;51.322;22.816;2022-12-07T01:05:32;29.75;;;13.77;;
22922;SDS011;11627;51.322;22.816;2022-12-07T01:07:58;30.15;;;14.85;;
22922;SDS011;11627;51.322;22.816;2022-12-07T01:10:23;31.02;;;14.23;;
22922;SDS011;11627;51.322;22.816;2022-12-07T01:12:49;33.65;;;15.20;;
22922;SDS011;11627;51.322;22.816;2022-12-07T01:15:15;31.33;;;14.65;;
22922;SDS011;11627;51.322;22.816;2022-12-07T01:17:40;34.90;;;14.73;;
22922;SDS011;11627;51.322;22.816;2022-12-07T01:20:06;34.25;;;15.05;;
22922;SDS011;11627;51.322;22.816;2022-12-07T01:22:41;35.85;;;15.23;;
22922;SDS011;11627;51.322;22.816;2022-12-07T01:25:08;34.75;;;15.05;;
22922;SDS011;11627;51.322;22.816;2022-12-07T01:27:35;35.00;;;15.70;;
22922;SDS011;11627;51.322;22.816;2022-12-07T01:30:02;32.60;;;15.15;;
22922;SDS011;11627;51.322;22.816;2022-12-07T01:32:30;33.78;;;15.73;;
22922;SDS011;11627;51.322;22.816;2022-12-07T01:34:55;36.85;;;15.35;;
22922;SDS011;11627;51.322;22.816;2022-12-07T01:37:21;33.45;;;15.02;;
22922;SDS011;11627;51.322;22.816;2022-12-07T01:39:50;37.00;;;15.40;;
22922;SDS011;11627;51.322;22.816;2022-12-07T01:42:17;36.10;;;15.70;;
22922;SDS011;11627;51.322;22.816;2022-12-07T01:47:56;33.80;;;14.48;;
22922;SDS011;11627;51.322;22.816;2022-12-07T01:50:24;34.10;;;14.88;;
22922;SDS011;11627;51.322;22.816;2022-12-07T01:52:53;26.75;;;13.55;;
22922;SDS011;11627;51.322;22.816;2022-12-07T01:55:21;30.00;;;13.10;;
22922;SDS011;11627;51.322;22.816;2022-12-07T01:57:48;31.05;;;13.07;;
22922;SDS011;11627;51.322;22.816;2022-12-07T02:00:16;32.30;;;13.63;;
22922;SDS011;11627;51.322;22.816;2022-12-07T02:03:43;29.23;;;13.85;;
22922;SDS011;11627;51.322;22.816;2022-12-07T02:06:04;29.75;;;13.65;;
22922;SDS011;11627;51.322;22.816;2022-12-07T02:08:31;31.50;;;13.98;;
22922;SDS011;11627;51.322;22.816;2022-12-07T02:10:57;32.30;;;14.65;;
22922;SDS011;11627;51.322;22.816;2022-12-07T02:13:28;32.45;;;13.80;;
22922;SDS011;11627;51.322;22.816;2022-12-07T02:16:13;35.17;;;15.63;;
22922;SDS011;11627;51.322;22.816;2022-12-07T02:30:12;25.45;;;12.85;;
22922;SDS011;11627;51.322;22.816;2022-12-07T02:35:11;27.25;;;12.68;;
22922;SDS011;11627;51.322;22.816;2022-12-07T02:40:40;21.92;;;10.77;;
22922;SDS011;11627;51.322;22.816;2022-12-07T02:45:54;27.48;;;12.18;;
22922;SDS011;11627;51.322;22.816;2022-12-07T02:48:23;23.95;;;11.57;;
22922;SDS011;11627;51.322;22.816;2022-12-07T02:50:52;26.02;;;12.00;;
22922;SDS011;11627;51.322;22.816;2022-12-07T02:53:29;24.08;;;11.88;;
22922;SDS011;11627;51.322;22.816;2022-12-07T02:55:55;23.27;;;11.68;;
22922;SDS011;11627;51.322;22.816;2022-12-07T03:01:28;26.55;;;13.05;;
22922;SDS011;11627;51.322;22.816;2022-12-07T03:07:00;26.08;;;12.18;;
22922;SDS011;11627;51.322;22.816;2022-12-07T03:09:38;25.83;;;12.60;;
22922;SDS011;11627;51.322;22.816;2022-12-07T03:12:09;26.73;;;12.27;;
22922;SDS011;11627;51.322;22.816;2022-12-07T03:14:43;24.55;;;12.60;;
22922;SDS011;11627;51.322;22.816;2022-12-07T03:17:16;24.77;;;12.30;;
22922;SDS011;11627;51.322;22.816;2022-12-07T03:19:49;26.65;;;12.55;;
22922;SDS011;11627;51.322;22.816;2022-12-07T03:22:18;26.42;;;12.50;;
22922;SDS011;11627;51.322;22.816;2022-12-07T03:24:47;25.63;;;12.93;;
22922;SDS011;11627;51.322;22.816;2022-12-07T03:27:21;24.30;;;12.05;;
22922;SDS011;11627;51.322;22.816;2022-12-07T03:29:54;24.08;;;12.05;;
22922;SDS011;11627;51.322;22.816;2022-12-07T03:32:32;20.95;;;10.27;;
22922;SDS011;11627;51.322;22.816;2022-12-07T03:35:09;14.20;;;8.45;;
22922;SDS011;11627;51.322;22.816;2022-12-07T03:37:41;17.30;;;8.85;;
22922;SDS011;11627;51.322;22.816;2022-12-07T03:43:02;13.85;;;6.97;;
22922;SDS011;11627;51.322;22.816;2022-12-07T03:45:31;12.15;;;6.90;;
22922;SDS011;11627;51.322;22.816;2022-12-07T03:50:40;11.55;;;6.38;;
22922;SDS011;11627;51.322;22.816;2022-12-07T03:53:29;12.70;;;5.68;;
22922;SDS011;11627;51.322;22.816;2022-12-07T03:55:57;9.27;;;5.45;;
22922;SDS011;11627;51.322;22.816;2022-12-07T03:58:23;10.98;;;6.20;;
22922;SDS011;11627;51.322;22.816;2022-12-07T04:00:50;12.65;;;6.00;;
22922;SDS011;11627;51.322;22.816;2022-12-07T04:03:16;10.30;;;5.22;;
22922;SDS011;11627;51.322;22.816;2022-12-07T04:05:42;7.32;;;4.20;;
22922;SDS011;11627;51.322;22.816;2022-12-07T04:08:08;6.85;;;4.15;;
22922;SDS011;11627;51.322;22.816;2022-12-07T04:10:34;5.85;;;2.08;;
22922;SDS011;11627;51.322;22.816;2022-12-07T04:13:00;5.43;;;3.20;;
22922;SDS011;11627;51.322;22.816;2022-12-07T04:15:25;5.05;;;3.03;;
22922;SDS011;11627;51.322;22.816;2022-12-07T04:17:51;6.32;;;3.10;;
22922;SDS011;11627;51.322;22.816;2022-12-07T04:20:16;6.00;;;3.58;;
22922;SDS011;11627;51.322;22.816;2022-12-07T04:22:42;4.32;;;2.80;;
22922;SDS011;11627;51.322;22.816;2022-12-07T04:25:08;5.82;;;3.03;;
22922;SDS011;11627;51.322;22.816;2022-12-07T04:27:33;3.67;;;2.58;;
22922;SDS011;11627;51.322;22.816;2022-12-07T04:29:59;5.57;;;2.58;;
22922;SDS011;11627;51.322;22.816;2022-12-07T04:32:25;5.38;;;3.30;;
22922;SDS011;11627;51.322;22.816;2022-12-07T04:34:50;6.32;;;2.80;;
22922;SDS011;11627;51.322;22.816;2022-12-07T04:37:16;5.78;;;3.40;;
22922;SDS011;11627;51.322;22.816;2022-12-07T04:39:42;7.47;;;3.78;;
22922;SDS011;11627;51.322;22.816;2022-12-07T04:42:09;9.68;;;3.55;;
22922;SDS011;11627;51.322;22.816;2022-12-07T04:44:35;8.48;;;4.40;;
22922;SDS011;11627;51.322;22.816;2022-12-07T04:47:01;7.38;;;3.70;;
22922;SDS011;11627;51.322;22.816;2022-12-07T04:49:26;7.18;;;3.72;;
22922;SDS011;11627;51.322;22.816;2022-12-07T04:51:52;7.53;;;3.85;;
22922;SDS011;11627;51.322;22.816;2022-12-07T04:54:18;7.55;;;4.35;;
22922;SDS011;11627;51.322;22.816;2022-12-07T04:56:44;6.40;;;3.50;;
22922;SDS011;11627;51.322;22.816;2022-12-07T04:59:13;5.47;;;3.30;;
22922;SDS011;11627;51.322;22.816;2022-12-07T05:01:40;6.68;;;3.53;;
22922;SDS011;11627;51.322;22.816;2022-12-07T05:04:06;6.45;;;4.18;;
22922;SDS011;11627;51.322;22.816;2022-12-07T05:06:32;6.78;;;3.97;;
22922;SDS011;11627;51.322;22.816;2022-12-07T05:08:58;8.18;;;4.53;;
22922;SDS011;11627;51.322;22.816;2022-12-07T05:11:23;10.48;;;4.65;;
22922;SDS011;11627;51.322;22.816;2022-12-07T05:14:06;7.88;;;4.40;;
22922;SDS011;11627;51.322;22.816;2022-12-07T05:16:43;6.93;;;4.70;;
22922;SDS011;11627;51.322;22.816;2022-12-07T05:19:11;7.95;;;4.47;;
22922;SDS011;11627;51.322;22.816;2022-12-07T05:21:37;8.70;;;5.20;;
22922;SDS011;11627;51.322;22.816;2022-12-07T05:24:03;11.30;;;6.03;;
22922;SDS011;11627;51.322;22.816;2022-12-07T05:26:29;9.50;;;6.13;;
22922;SDS011;11627;51.322;22.816;2022-12-07T05:28:55;10.38;;;6.22;;
22922;SDS011;11627;51.322;22.816;2022-12-07T05:31:22;12.57;;;6.70;;
22922;SDS011;11627;51.322;22.816;2022-12-07T05:33:49;12.27;;;6.75;;
22922;SDS011;11627;51.322;22.816;2022-12-07T05:36:14;10.43;;;5.63;;
22922;SDS011;11627;51.322;22.816;2022-12-07T05:38:40;10.15;;;5.30;;
22922;SDS011;11627;51.322;22.816;2022-12-07T05:41:06;8.40;;;4.75;;
22922;SDS011;11627;51.322;22.816;2022-12-07T05:43:53;7.45;;;4.78;;
22922;SDS011;11627;51.322;22.816;2022-12-07T05:46:18;8.38;;;4.70;;
22922;SDS011;11627;51.322;22.816;2022-12-07T05:48:44;8.45;;;4.93;;
22922;SDS011;11627;51.322;22.816;2022-12-07T05:51:09;8.80;;;5.60;;
22922;SDS011;11627;51.322;22.816;2022-12-07T05:53:35;10.65;;;5.80;;
22922;SDS011;11627;51.322;22.816;2022-12-07T05:56:00;11.82;;;5.63;;
22922;SDS011;11627;51.322;22.816;2022-12-07T05:58:26;9.10;;;5.00;;
22922;SDS011;11627;51.322;22.816;2022-12-07T06:01:10;8.88;;;5.53;;
22922;SDS011;11627;51.322;22.816;2022-12-07T06:03:36;10.70;;;5.97;;
22922;SDS011;11627;51.322;22.816;2022-12-07T06:06:01;10.38;;;5.65;;
22922;SDS011;11627;51.322;22.816;2022-12-07T06:08:27;10.10;;;5.63;;
22922;SDS011;11627;51.322;22.816;2022-12-07T06:10:52;12.13;;;5.90;;
22922;SDS011;11627;51.322;22.816;2022-12-07T06:13:38;9.80;;;5.80;;
22922;SDS011;11627;51.322;22.816;2022-12-07T06:16:03;13.05;;;6.97;;
22922;SDS011;11627;51.322;22.816;2022-12-07T06:18:29;12.30;;;6.70;;
22922;SDS011;11627;51.322;22.816;2022-12-07T06:20:55;10.15;;;6.20;;
22922;SDS011;11627;51.322;22.816;2022-12-07T06:23:20;10.90;;;7.38;;
22922;SDS011;11627;51.322;22.816;2022-12-07T06:25:46;12.82;;;7.25;;
22922;SDS011;11627;51.322;22.816;2022-12-07T06:28:12;12.10;;;7.05;;
22922;SDS011;11627;51.322;22.816;2022-12-07T06:30:37;11.93;;;7.15;;
22922;SDS011;11627;51.322;22.816;2022-12-07T06:33:03;11.48;;;6.70;;
22922;SDS011;11627;51.322;22.816;2022-12-07T06:35:28;10.65;;;6.78;;
22922;SDS011;11627;51.322;22.816;2022-12-07T06:37:54;10.23;;;6.40;;
22922;SDS011;11627;51.322;22.816;2022-12-07T06:40:19;12.48;;;6.93;;
22922;SDS011;11627;51.322;22.816;2022-12-07T06:42:45;10.35;;;6.85;;
22922;SDS011;11627;51.322;22.816;2022-12-07T06:45:10;12.10;;;6.97;;
22922;SDS011;11627;51.322;22.816;2022-12-07T06:47:36;14.80;;;6.93;;
22922;SDS011;11627;51.322;22.816;2022-12-07T06:50:02;9.75;;;6.63;;
22922;SDS011;11627;51.322;22.816;2022-12-07T06:52:28;13.38;;;6.80;;
22922;SDS011;11627;51.322;22.816;2022-12-07T06:54:53;10.60;;;6.38;;
22922;SDS011;11627;51.322;22.816;2022-12-07T06:57:19;9.50;;;6.18;;
22922;SDS011;11627;51.322;22.816;2022-12-07T06:59:45;10.85;;;5.70;;
22922;SDS011;11627;51.322;22.816;2022-12-07T07:02:10;9.30;;;6.00;;
22922;SDS011;11627;51.322;22.816;2022-12-07T07:04:36;9.60;;;6.45;;
22922;SDS011;11627;51.322;22.816;2022-12-07T07:07:02;12.07;;;5.82;;
22922;SDS011;11627;51.322;22.816;2022-12-07T07:09:27;10.15;;;5.80;;
22922;SDS011;11627;51.322;22.816;2022-12-07T07:11:53;9.65;;;5.70;;
22922;SDS011;11627;51.322;22.816;2022-12-07T07:14:19;10.75;;;5.70;;
22922;SDS011;11627;51.322;22.816;2022-12-07T07:16:46;8.60;;;5.00;;
22922;SDS011;11627;51.322;22.816;2022-12-07T07:19:11;8.98;;;5.15;;
22922;SDS011;11627;51.322;22.816;2022-12-07T07:21:37;8.90;;;4.95;;
22922;SDS011;11627;51.322;22.816;2022-12-07T07:24:02;10.18;;;5.93;;
22922;SDS011;11627;51.322;22.816;2022-12-07T07:26:28;10.95;;;5.88;;
22922;SDS011;11627;51.322;22.816;2022-12-07T07:28:55;9.65;;;5.45;;
22922;SDS011;11627;51.322;22.816;2022-12-07T07:31:20;8.45;;;5.35;;
22922;SDS011;11627;51.322;22.816;2022-12-07T07:33:46;9.52;;;4.95;;
22922;SDS011;11627;51.322;22.816;2022-12-07T07:36:12;11.38;;;5.97;;
22922;SDS011;11627;51.322;22.816;2022-12-07T07:38:37;11.65;;;6.63;;
22922;SDS011;11627;51.322;22.816;2022-12-07T07:41:03;11.75;;;5.88;;
22922;SDS011;11627;51.322;22.816;2022-12-07T07:43:29;11.55;;;6.70;;
22922;SDS011;11627;51.322;22.816;2022-12-07T07:45:54;15.45;;;7.07;;
22922;SDS011;11627;51.322;22.816;2022-12-07T07:48:20;10.75;;;6.50;;
22922;SDS011;11627;51.322;22.816;2022-12-07T07:50:47;10.65;;;6.43;;
22922;SDS011;11627;51.322;22.816;2022-12-07T07:53:13;12.23;;;6.93;;
22922;SDS011;11627;51.322;22.816;2022-12-07T07:55:38;13.15;;;6.13;;
22922;SDS011;11627;51.322;22.816;2022-12-07T07:58:04;11.23;;;6.47;;
22922;SDS011;11627;51.322;22.816;2022-12-07T08:00:29;10.05;;;5.97;;
22922;SDS011;11627;51.322;22.816;2022-12-07T08:02:55;14.45;;;8.07;;
22922;SDS011;11627;51.322;22.816;2022-12-07T08:05:21;10.95;;;6.10;;
22922;SDS011;11627;51.322;22.816;2022-12-07T08:07:46;8.57;;;5.30;;
22922;SDS011;11627;51.322;22.816;2022-12-07T08:10:12;11.00;;;5.22;;
22922;SDS011;11627;51.322;22.816;2022-12-07T08:12:40;12.75;;;7.22;;
22922;SDS011;11627;51.322;22.816;2022-12-07T08:15:29;11.32;;;7.10;;
22922;SDS011;11627;51.322;22.816;2022-12-07T08:17:56;11.23;;;6.32;;
22922;SDS011;11627;51.322;22.816;2022-12-07T08:20:22;11.30;;;6.35;;
22922;SDS011;11627;51.322;22.816;2022-12-07T08:22:48;10.65;;;5.93;;
22922;SDS011;11627;51.322;22.816;2022-12-07T08:25:13;13.05;;;5.90;;
22922;SDS011;11627;51.322;22.816;2022-12-07T08:27:39;11.48;;;5.82;;
22922;SDS011;11627;51.322;22.816;2022-12-07T08:30:05;10.43;;;5.95;;
22922;SDS011;11627;51.322;22.816;2022-12-07T08:32:31;10.88;;;5.45;;
22922;SDS011;11627;51.322;22.816;2022-12-07T08:34:56;9.93;;;5.65;;
22922;SDS011;11627;51.322;22.816;2022-12-07T08:37:22;10.18;;;5.07;;
22922;SDS011;11627;51.322;22.816;2022-12-07T08:39:47;9.95;;;5.20;;
22922;SDS011;11627;51.322;22.816;2022-12-07T08:42:13;8.43;;;5.00;;
22922;SDS011;11627;51.322;22.816;2022-12-07T08:44:39;9.32;;;5.30;;
22922;SDS011;11627;51.322;22.816;2022-12-07T08:47:05;11.23;;;5.22;;
22922;SDS011;11627;51.322;22.816;2022-12-07T08:49:33;10.70;;;5.55;;
22922;SDS011;11627;51.322;22.816;2022-12-07T08:52:04;10.77;;;5.68;;
22922;SDS011;11627;51.322;22.816;2022-12-07T08:54:30;10.95;;;6.13;;
22922;SDS011;11627;51.322;22.816;2022-12-07T08:57:00;10.05;;;5.78;;
22922;SDS011;11627;51.322;22.816;2022-12-07T08:59:26;10.70;;;6.10;;
22922;SDS011;11627;51.322;22.816;2022-12-07T09:01:53;11.93;;;6.50;;
22922;SDS011;11627;51.322;22.816;2022-12-07T09:04:19;11.57;;;6.93;;
22922;SDS011;11627;51.322;22.816;2022-12-07T09:06:45;12.30;;;6.88;;
22922;SDS011;11627;51.322;22.816;2022-12-07T09:09:11;14.48;;;7.03;;
22922;SDS011;11627;51.322;22.816;2022-12-07T09:11:38;12.68;;;6.95;;
22922;SDS011;11627;51.322;22.816;2022-12-07T09:14:04;12.63;;;6.93;;
22922;SDS011;11627;51.322;22.816;2022-12-07T09:16:30;13.43;;;7.05;;
22922;SDS011;11627;51.322;22.816;2022-12-07T09:18:56;12.13;;;6.75;;
22922;SDS011;11627;51.322;22.816;2022-12-07T09:21:21;11.93;;;6.80;;
22922;SDS011;11627;51.322;22.816;2022-12-07T09:23:47;13.23;;;7.60;;
22922;SDS011;11627;51.322;22.816;2022-12-07T09:26:13;12.45;;;6.95;;
22922;SDS011;11627;51.322;22.816;2022-12-07T09:28:38;14.95;;;7.60;;
22922;SDS011;11627;51.322;22.816;2022-12-07T09:31:04;13.15;;;7.45;;
22922;SDS011;11627;51.322;22.816;2022-12-07T09:33:31;16.75;;;8.48;;
22922;SDS011;11627;51.322;22.816;2022-12-07T09:35:57;15.57;;;8.38;;
22922;SDS011;11627;51.322;22.816;2022-12-07T09:38:23;13.32;;;7.85;;
22922;SDS011;11627;51.322;22.816;2022-12-07T09:40:51;13.05;;;8.00;;
22922;SDS011;11627;51.322;22.816;2022-12-07T09:43:19;13.95;;;7.63;;
22922;SDS011;11627;51.322;22.816;2022-12-07T09:45:48;13.95;;;7.90;;
22922;SDS011;11627;51.322;22.816;2022-12-07T09:48:19;13.32;;;7.47;;
22922;SDS011;11627;51.322;22.816;2022-12-07T09:50:53;13.88;;;8.05;;
22922;SDS011;11627;51.322;22.816;2022-12-07T09:53:33;17.17;;;8.10;;
22922;SDS011;11627;51.322;22.816;2022-12-07T09:56:00;15.18;;;8.07;;
22922;SDS011;11627;51.322;22.816;2022-12-07T09:58:27;16.27;;;8.00;;
22922;SDS011;11627;51.322;22.816;2022-12-07T10:03:33;13.10;;;7.75;;
22922;SDS011;11627;51.322;22.816;2022-12-07T10:06:00;12.98;;;7.38;;
22922;SDS011;11627;51.322;22.816;2022-12-07T10:08:26;12.02;;;6.18;;
22922;SDS011;11627;51.322;22.816;2022-12-07T10:10:53;8.93;;;5.07;;
22922;SDS011;11627;51.322;22.816;2022-12-07T10:13:22;13.45;;;7.10;;
22922;SDS011;11627;51.322;22.816;2022-12-07T10:16:00;10.68;;;6.18;;
22922;SDS011;11627;51.322;22.816;2022-12-07T10:18:30;12.38;;;6.45;;
22922;SDS011;11627;51.322;22.816;2022-12-07T10:24:13;13.00;;;7.10;;
22922;SDS011;11627;51.322;22.816;2022-12-07T10:31:58;12.77;;;7.82;;
22922;SDS011;11627;51.322;22.816;2022-12-07T10:34:27;15.85;;;8.15;;
22922;SDS011;11627;51.322;22.816;2022-12-07T10:42:17;12.23;;;7.05;;
22922;SDS011;11627;51.322;22.816;2022-12-07T10:44:49;14.68;;;7.68;;
22922;SDS011;11627;51.322;22.816;2022-12-07T10:47:33;14.57;;;7.63;;
22922;SDS011;11627;51.322;22.816;2022-12-07T10:55:45;13.30;;;7.22;;
22922;SDS011;11627;51.322;22.816;2022-12-07T11:01:34;9.77;;;5.85;;
22922;SDS011;11627;51.322;22.816;2022-12-07T11:04:26;14.82;;;7.40;;
22922;SDS011;11627;51.322;22.816;2022-12-07T11:24:10;13.50;;;5.85;;
22922;SDS011;11627;51.322;22.816;2022-12-07T11:37:51;6.22;;;2.85;;
22922;SDS011;11627;51.322;22.816;2022-12-07T11:40:32;7.10;;;3.20;;
22922;SDS011;11627;51.322;22.816;2022-12-07T11:43:02;9.82;;;5.35;;
22922;SDS011;11627;51.322;22.816;2022-12-07T11:45:46;12.23;;;6.43;;
22922;SDS011;11627;51.322;22.816;2022-12-07T11:48:21;7.97;;;4.57;;
22922;SDS011;11627;51.322;22.816;2022-12-07T11:50:57;8.38;;;5.18;;
22922;SDS011;11627;51.322;22.816;2022-12-07T11:53:42;12.55;;;4.07;;
22922;SDS011;11627;51.322;22.816;2022-12-07T11:56:33;10.57;;;6.07;;
22922;SDS011;11627;51.322;22.816;2022-12-07T12:06:36;14.55;;;6.38;;
22922;SDS011;11627;51.322;22.816;2022-12-07T12:09:11;12.43;;;6.72;;
22922;SDS011;11627;51.322;22.816;2022-12-07T12:22:46;14.32;;;6.95;;
22922;SDS011;11627;51.322;22.816;2022-12-07T12:25:31;11.32;;;5.28;;
22922;SDS011;11627;51.322;22.816;2022-12-07T12:28:02;11.50;;;6.35;;
22922;SDS011;11627;51.322;22.816;2022-12-07T12:30:36;11.80;;;5.57;;
22922;SDS011;11627;51.322;22.816;2022-12-07T12:33:12;12.32;;;6.30;;
22922;SDS011;11627;51.322;22.816;2022-12-07T12:49:36;13.73;;;7.20;;
22922;SDS011;11627;51.322;22.816;2022-12-07T12:54:40;13.88;;;8.05;;
22922;SDS011;11627;51.322;22.816;2022-12-07T12:57:34;12.63;;;7.10;;
22922;SDS011;11627;51.322;22.816;2022-12-07T13:07:58;13.25;;;7.40;;
22922;SDS011;11627;51.322;22.816;2022-12-07T13:20:53;13.80;;;7.35;;
22922;SDS011;11627;51.322;22.816;2022-12-07T13:29:18;18.08;;;8.40;;
22922;SDS011;11627;51.322;22.816;2022-12-07T13:32:03;15.35;;;7.78;;
22922;SDS011;11627;51.322;22.816;2022-12-07T13:34:37;17.17;;;8.93;;
22922;SDS011;11627;51.322;22.816;2022-12-07T13:37:10;18.05;;;9.10;;
22922;SDS011;11627;51.322;22.816;2022-12-07T13:39:47;20.13;;;9.70;;
22922;SDS011;11627;51.322;22.816;2022-12-07T13:42:26;15.85;;;8.95;;
22922;SDS011;11627;51.322;22.816;2022-12-07T13:44:58;16.98;;;8.98;;
22922;SDS011;11627;51.322;22.816;2022-12-07T13:50:15;15.15;;;8.48;;
22922;SDS011;11627;51.322;22.816;2022-12-07T13:52:50;14.50;;;8.55;;
22922;SDS011;11627;51.322;22.816;2022-12-07T13:55:21;16.33;;;8.45;;
22922;SDS011;11627;51.322;22.816;2022-12-07T13:57:50;14.27;;;8.50;;
22922;SDS011;11627;51.322;22.816;2022-12-07T14:00:22;16.08;;;8.93;;
22922;SDS011;11627;51.322;22.816;2022-12-07T14:05:31;17.85;;;8.82;;
22922;SDS011;11627;51.322;22.816;2022-12-07T14:08:00;16.50;;;8.60;;
22922;SDS011;11627;51.322;22.816;2022-12-07T14:10:34;14.32;;;8.32;;
22922;SDS011;11627;51.322;22.816;2022-12-07T14:13:02;14.88;;;8.88;;
22922;SDS011;11627;51.322;22.816;2022-12-07T14:15:44;14.93;;;8.23;;
22922;SDS011;11627;51.322;22.816;2022-12-07T14:18:29;13.45;;;8.77;;
22922;SDS011;11627;51.322;22.816;2022-12-07T14:23:39;23.70;;;11.23;;
22922;SDS011;11627;51.322;22.816;2022-12-07T14:26:12;20.38;;;10.85;;
22922;SDS011;11627;51.322;22.816;2022-12-07T14:28:39;23.98;;;10.10;;
22922;SDS011;11627;51.322;22.816;2022-12-07T14:31:16;16.80;;;9.07;;
22922;SDS011;11627;51.322;22.816;2022-12-07T14:33:45;16.17;;;8.50;;
22922;SDS011;11627;51.322;22.816;2022-12-07T14:36:11;16.75;;;9.65;;
22922;SDS011;11627;51.322;22.816;2022-12-07T14:38:37;20.65;;;9.43;;
22922;SDS011;11627;51.322;22.816;2022-12-07T14:41:04;13.80;;;8.13;;
22922;SDS011;11627;51.322;22.816;2022-12-07T14:43:56;16.00;;;8.00;;
22922;SDS011;11627;51.322;22.816;2022-12-07T14:46:22;18.02;;;7.70;;
22922;SDS011;11627;51.322;22.816;2022-12-07T14:48:47;13.05;;;6.80;;
22922;SDS011;11627;51.322;22.816;2022-12-07T14:51:13;13.65;;;6.65;;
22922;SDS011;11627;51.322;22.816;2022-12-07T14:53:41;15.18;;;8.00;;
22922;SDS011;11627;51.322;22.816;2022-12-07T14:56:11;12.52;;;6.50;;
22922;SDS011;11627;51.322;22.816;2022-12-07T14:58:36;15.52;;;7.28;;
22922;SDS011;11627;51.322;22.816;2022-12-07T15:01:02;14.18;;;7.63;;
22922;SDS011;11627;51.322;22.816;2022-12-07T15:03:28;15.27;;;7.15;;
22922;SDS011;11627;51.322;22.816;2022-12-07T15:05:54;13.77;;;6.82;;
22922;SDS011;11627;51.322;22.816;2022-12-07T15:08:20;13.77;;;6.88;;
22922;SDS011;11627;51.322;22.816;2022-12-07T15:10:46;13.05;;;7.20;;
22922;SDS011;11627;51.322;22.816;2022-12-07T15:13:11;14.32;;;6.60;;
22922;SDS011;11627;51.322;22.816;2022-12-07T15:15:56;12.95;;;6.90;;
22922;SDS011;11627;51.322;22.816;2022-12-07T15:18:22;13.27;;;6.75;;
22922;SDS011;11627;51.322;22.816;2022-12-07T15:20:49;12.18;;;6.45;;
22922;SDS011;11627;51.322;22.816;2022-12-07T15:23:16;11.43;;;6.05;;
22922;SDS011;11627;51.322;22.816;2022-12-07T15:25:43;15.10;;;6.95;;
22922;SDS011;11627;51.322;22.816;2022-12-07T15:28:09;13.15;;;6.80;;
22922;SDS011;11627;51.322;22.816;2022-12-07T15:30:36;13.70;;;7.40;;
22922;SDS011;11627;51.322;22.816;2022-12-07T15:33:03;12.63;;;6.82;;
22922;SDS011;11627;51.322;22.816;2022-12-07T15:35:28;12.95;;;6.90;;
22922;SDS011;11627;51.322;22.816;2022-12-07T15:37:54;14.98;;;7.72;;
22922;SDS011;11627;51.322;22.816;2022-12-07T15:40:20;13.23;;;7.50;;
22922;SDS011;11627;51.322;22.816;2022-12-07T15:42:45;17.70;;;7.25;;
22922;SDS011;11627;51.322;22.816;2022-12-07T15:45:12;18.45;;;8.80;;
22922;SDS011;11627;51.322;22.816;2022-12-07T15:47:42;23.90;;;9.75;;
22922;SDS011;11627;51.322;22.816;2022-12-07T15:50:11;19.50;;;9.75;;
22922;SDS011;11627;51.322;22.816;2022-12-07T15:52:39;16.40;;;8.80;;
22922;SDS011;11627;51.322;22.816;2022-12-07T15:55:04;19.10;;;9.10;;
22922;SDS011;11627;51.322;22.816;2022-12-07T15:57:31;18.70;;;8.65;;
22922;SDS011;11627;51.322;22.816;2022-12-07T15:59:57;15.45;;;8.00;;
22922;SDS011;11627;51.322;22.816;2022-12-07T16:02:23;18.30;;;8.40;;
22922;SDS011;11627;51.322;22.816;2022-12-07T16:04:50;18.35;;;9.43;;
22922;SDS011;11627;51.322;22.816;2022-12-07T16:07:16;21.85;;;9.85;;
22922;SDS011;11627;51.322;22.816;2022-12-07T16:09:42;21.08;;;10.45;;
22922;SDS011;11627;51.322;22.816;2022-12-07T16:12:09;18.02;;;9.38;;
22922;SDS011;11627;51.322;22.816;2022-12-07T16:14:36;19.30;;;9.95;;
22922;SDS011;11627;51.322;22.816;2022-12-07T16:17:02;20.48;;;10.00;;
22922;SDS011;11627;51.322;22.816;2022-12-07T16:19:29;14.32;;;8.48;;
22922;SDS011;11627;51.322;22.816;2022-12-07T16:21:55;16.45;;;9.18;;
22922;SDS011;11627;51.322;22.816;2022-12-07T16:24:21;17.75;;;8.95;;
22922;SDS011;11627;51.322;22.816;2022-12-07T16:26:47;18.10;;;9.38;;
22922;SDS011;11627;51.322;22.816;2022-12-07T16:29:14;17.42;;;9.25;;
22922;SDS011;11627;51.322;22.816;2022-12-07T16:31:40;19.75;;;10.63;;
22922;SDS011;11627;51.322;22.816;2022-12-07T16:34:06;15.45;;;9.48;;
22922;SDS011;11627;51.322;22.816;2022-12-07T16:36:32;15.30;;;8.55;;
22922;SDS011;11627;51.322;22.816;2022-12-07T16:38:58;15.20;;;8.98;;
22922;SDS011;11627;51.322;22.816;2022-12-07T16:41:25;14.60;;;8.35;;
22922;SDS011;11627;51.322;22.816;2022-12-07T16:43:51;16.10;;;8.68;;
22922;SDS011;11627;51.322;22.816;2022-12-07T16:46:16;17.95;;;9.73;;
22922;SDS011;11627;51.322;22.816;2022-12-07T16:48:42;19.13;;;9.57;;
22922;SDS011;11627;51.322;22.816;2022-12-07T16:51:09;23.38;;;10.98;;
22922;SDS011;11627;51.322;22.816;2022-12-07T16:53:37;21.23;;;10.77;;
22922;SDS011;11627;51.322;22.816;2022-12-07T16:56:05;20.80;;;10.70;;
22922;SDS011;11627;51.322;22.816;2022-12-07T16:58:39;20.88;;;10.45;;
22922;SDS011;11627;51.322;22.816;2022-12-07T17:01:14;19.13;;;10.43;;
22922;SDS011;11627;51.322;22.816;2022-12-07T17:03:44;21.45;;;10.32;;
22922;SDS011;11627;51.322;22.816;2022-12-07T17:06:11;21.08;;;10.23;;